Nearby METAR Reports

 

KSJC - San Jose, California, USA
Distance from station: NO 14km
Uppdaterad: 2019-10-17 07:53
Övervägande molnigt
Övervägande molnigt
 Vind från VSV
Vind: VSV 6 km/h
Temperatur: 16°C
Daggpunkt: 11°C
Luftfuktighet: 72%
Barometer: 1012.9 hPa
Clouds: Övervägande molnigt
Visibility: 16 km
Cloud details: Few Clouds 1067 m
Delvis molnigt 2286 m
Övervägande molnigt 3658 m
2019/10/17 05:53 KSJC 170553Z 25003KT 10SM FEW035 SCT075 BKN120 16/11 A2991 RMK AO2 SLP129 T01610106 10178 20161 55001
KNUQ - Moffett Nas/Mtn, California, USA
Distance from station: N 14km
Uppdaterad: 2019-10-17 07:56

 
Barometer: 1012.9 hPa
2019/10/17 05:56 KNUQ 170556Z A2991 RMK AO2 SLP132 56003 PWINO $
 
KPAO - Palo Alto, California, USA
Distance from station: NNV 23km
Uppdaterad: 2019-10-17 02:47
NOT Current
Genommulet
Genommulet
 Vind från NV
Vind: NV 17 km/h
Temperatur: 18°C
Daggpunkt: 9°C
Luftfuktighet: 56%
Barometer: 1012.9 hPa
Clouds: Genommulet
Visibility: 16 km
Cloud details: Genommulet 3658 m
2019/10/17 00:47 KPAO 170047Z 31009KT 10SM OVC120 18/09 A2991
KRHV - San Jose/Reid, California, USA
Distance from station: ONO 19km
Uppdaterad: 2019-10-17 06:52
NOT Current
Genommulet
Genommulet
 Vind från calm
Vind: Vindstilla
Temperatur: 16°C
Daggpunkt: 9°C
Luftfuktighet: 63%
Barometer: 1012.9 hPa
Clouds: Genommulet
Visibility: 16 km
Cloud details: Genommulet 3048 m
2019/10/17 04:52 KRHV 170452Z 00000KT 10SM OVC100 16/09 A2991 RMK LAST
 
KOAK - Oakland, California, USA
Distance from station: NNV 50km
Uppdaterad: 2019-10-17 07:53
Övervägande molnigt
Övervägande molnigt
 Vind från V
Vind: V 19 km/h
Temperatur: 16°C
Daggpunkt: 12°C
Luftfuktighet: 77%
Barometer: 1012.9 hPa
Clouds: Övervägande molnigt
Visibility: 16 km
Cloud details: Delvis molnigt 975 m
Övervägande molnigt 1463 m
Övervägande molnigt 5182 m
2019/10/17 05:53 KOAK 170553Z 26010KT 10SM SCT032 BKN048 BKN170 16/12 A2991 RMK AO2 RAB36E51 SLP129 P0000 60000 T01610117 10167 20156 55001
KSQL - San Carlos Airpo, California, USA
Distance from station: NV 34km
Uppdaterad: 2019-10-17 05:58
NOT Current
Övervägande molnigt
Övervägande molnigt
 Vind från calm
Vind: Vindstilla
Temperatur: 17°C
Daggpunkt: 9°C
Luftfuktighet: 59%
Barometer: 1012.9 hPa
Clouds: Övervägande molnigt
Visibility: 16 km
Cloud details: Few Clouds 305 m
Övervägande molnigt 5486 m
2019/10/17 03:58 KSQL 170358Z 00000KT 10SM FEW010 BKN180 17/09 A2991 RMK LAST
 
KSFO - San Francisco, California, USA
Distance from station: NV 49km
Uppdaterad: 2019-10-17 07:56
Genommulet
Genommulet
 Vind från VNV
Vind: VNV 11 km/h
Temperatur: 16°C
Daggpunkt: 11°C
Luftfuktighet: 72%
Barometer: 1012.9 hPa
Clouds: Genommulet
Visibility: 16 km
Cloud details: Few Clouds 792 m
Övervägande molnigt 945 m
Genommulet 2134 m
2019/10/17 05:56 KSFO 170556Z 29006KT 10SM FEW026 BKN031 OVC070 16/11 A2991 RMK AO2 SLP127 T01610111 10172 20144 53002
KE16 - San Martin, California, USA
Distance from station: OSO 43km
Uppdaterad: 2019-10-17 07:50
Few Clouds
Few Clouds
 Vind från OSO
Vind: OSO 6 km/h
Temperatur: 15°C
Daggpunkt: 9°C
Luftfuktighet: 68%
Barometer: 1013.9 hPa
Clouds: Few Clouds
Visibility: 16 km
Cloud details: Few Clouds 1036 m
2019/10/17 05:50 KE16 170550Z AUTO 11003KT 10SM FEW034 15/09 A2994 RMK AO2
 
KWVI - Watsonville, California, USA
Distance from station: SSO 44km
Uppdaterad: 2019-10-17 07:53
Klart
Klart
 Vind från calm
Vind: Vindstilla
Temperatur: 13°C
Daggpunkt: 11°C
Luftfuktighet: 88%
Barometer: 1013.5 hPa
Clouds: Klart
Visibility: 16 km
2019/10/17 05:53 KWVI 170553Z AUTO 00000KT 10SM CLR 13/11 A2993 RMK AO2 SLP135 T01330106 10167 20133 53004
KHAF - Half Moon Bay, California, USA
Distance from station: VNV 50km
Uppdaterad: 2019-10-17 08:15
Genommulet
Genommulet
 Vind från calm
Vind: Vindstilla
Temperatur: 13°C
Daggpunkt: 10°C
Luftfuktighet: 82%
Barometer: 1013.2 hPa
Clouds: Genommulet
Visibility: 16 km
Cloud details: Few Clouds 610 m
Övervägande molnigt 823 m
Genommulet 1006 m
2019/10/17 06:15 KHAF 170615Z AUTO 00000KT 10SM FEW020 BKN027 OVC033 13/10 A2992 RMK AO2
 
KHWD - Hayward, California, USA
Distance from station: N 44km
Uppdaterad: 2019-10-17 07:54
Few Clouds
Few Clouds
 Vind från SV
Vind: SV 6 km/h
Temperatur: 16°C
Daggpunkt: 11°C
Luftfuktighet: 72%
Barometer: 1012.5 hPa
Clouds: Few Clouds
Visibility: 16 km
Cloud details: Few Clouds 975 m
2019/10/17 05:54 KHWD 170554Z AUTO 23003KT 10SM FEW032 16/11 A2990 RMK AO2 SLP135 T01560106 10167 20150 56004
KLVK - Livermore, California, USA
Distance from station: NNO 51km
Uppdaterad: 2019-10-17 07:53
Delvis molnigt
Delvis molnigt
 Vind från calm
Vind: Vindstilla
Temperatur: 15°C
Daggpunkt: 10°C
Luftfuktighet: 72%
Barometer: 1012.5 hPa
Clouds: Delvis molnigt
Visibility: 16 km
Cloud details: Few Clouds 640 m
Delvis molnigt 884 m
2019/10/17 05:53 KLVK 170553Z AUTO 00000KT 10SM FEW021 SCT029 15/10 A2990 RMK AO2 SLP120 T01500100 10194 20144 55003